Mayer, Minnesota
Current Conditions -  °F | °C
As of 7:14 PM on Sunday 23 Nov 2014 (Local Time) from KGYL Reporting Station
Broken Clouds Broken Clouds  
Wind Chill: 28°   Ceiling: 3800
Heat Index: 38°   Visibility: 10mi
Dew Point: 35°   Wind: 16mph
Humidity: 90%   Direction: 290°WNW
Pressure: 29.41"   Gusts: NA
Location:  44.88°N, 93.89°W
Report Text: KGYL 240114Z AUTO 29014KT 10SM SCT026 BKN038 03/02 A2941 RMK AO2 T00310016
Loading
Personal Weather Stations






























Interactive Weather Map New forecast layout! Learn more

10-Day Weather Forecast

Advertisements
Track Severe Weather on mobile